Time;durP1;ratioP1;P1;durP2;ratioP2;P2;SDS_P1;SDS_P2;PMS_P1;PMS_P2;Temp;Humidity;BMP_temperature;BMP_pressure;BME280_temperature;BME280_humidity;BME280_pressure;Samples;Min_cycle;Max_cycle;Signal;HPM_P1;HPM_P2
2022/03/25 00:01:30;;;;;;;28.73;12.23;;;13.80;39.00;;;;;;10070833;28;20025;-62
2022/03/25 00:06:22;;;;;;;27.17;12.75;;;13.80;39.20;;;;;;10057535;28;20426;-61
2022/03/25 00:11:12;;;;;;;25.88;12.25;;;13.80;39.30;;;;;;10059217;28;20026;-62
2022/03/25 00:16:04;;;;;;;25.45;12.45;;;13.70;39.40;;;;;;10071563;28;20147;-66
2022/03/25 00:20:55;;;;;;;28.00;13.00;;;13.60;39.40;;;;;;10065596;28;20041;-65
2022/03/25 00:25:46;;;;;;;35.92;14.60;;;13.60;39.90;;;;;;10075899;28;20383;-62
2022/03/25 00:30:36;;;;;;;28.17;12.75;;;13.70;39.70;;;;;;10068632;28;20899;-62
2022/03/25 00:35:27;;;;;;;26.83;11.30;;;13.50;39.70;;;;;;10066412;28;20026;-61
2022/03/25 00:40:18;;;;;;;25.90;12.55;;;13.40;40.00;;;;;;10059460;28;20078;-61
2022/03/25 00:45:10;;;;;;;26.38;12.60;;;13.40;40.00;;;;;;10038766;28;20060;-61
2022/03/25 00:50:01;;;;;;;22.35;10.55;;;13.30;40.20;;;;;;10087117;28;20025;-61
2022/03/25 00:54:51;;;;;;;26.85;12.05;;;13.30;40.50;;;;;;10076474;28;20029;-61
2022/03/25 00:59:42;;;;;;;24.52;10.85;;;13.40;40.50;;;;;;10067319;28;20098;-62
2022/03/25 01:04:34;;;;;;;25.27;11.45;;;13.30;40.80;;;;;;10061682;28;20053;-62
2022/03/25 01:09:24;;;;;;;22.92;11.80;;;13.20;41.00;;;;;;10056467;28;20033;-63
2022/03/25 01:14:15;;;;;;;22.80;11.65;;;13.10;41.20;;;;;;10074017;28;20117;-62
2022/03/25 01:19:06;;;;;;;23.73;10.88;;;13.00;41.10;;;;;;10079645;28;20056;-62
2022/03/25 01:23:57;;;;;;;22.88;12.30;;;13.00;41.40;;;;;;10069698;28;20441;-66
2022/03/25 01:28:48;;;;;;;21.88;11.45;;;13.10;41.20;;;;;;10049323;28;20060;-65
2022/03/25 01:33:39;;;;;;;26.63;11.75;;;13.00;41.80;;;;;;10076257;28;20044;-65
2022/03/25 01:38:30;;;;;;;23.23;11.05;;;13.00;41.30;;;;;;10052340;28;20049;-63
2022/03/25 01:43:21;;;;;;;24.10;12.73;;;12.80;41.60;;;;;;10060537;28;20087;-64
2022/03/25 01:48:13;;;;;;;25.05;12.70;;;12.80;41.60;;;;;;10061064;28;20044;-64
2022/03/25 01:53:13;;;;;;;25.60;11.60;;;12.70;41.80;;;;;;10078699;28;20557;-62
2022/03/25 01:58:06;;;;;;;28.10;12.50;;;12.70;42.10;;;;;;10065317;28;20033;-62
2022/03/25 02:02:56;;;;;;;26.05;11.93;;;12.60;42.00;;;;;;10062287;28;20025;-66
2022/03/25 02:07:48;;;;;;;23.77;10.32;;;12.40;42.20;;;;;;10056216;28;20165;-62
2022/03/25 02:12:40;;;;;;;24.63;11.80;;;12.30;42.20;;;;;;10061547;28;20061;-66
2022/03/25 02:17:32;;;;;;;20.50;12.45;;;12.20;42.90;;;;;;10087450;28;20388;-61
2022/03/25 02:22:23;;;;;;;23.52;11.90;;;12.20;42.70;;;;;;10073929;28;20515;-63
2022/03/25 02:27:13;;;;;;;24.33;10.57;;;12.30;42.50;;;;;;10067415;28;20053;-66
2022/03/25 02:32:04;;;;;;;28.50;11.35;;;12.20;42.90;;;;;;10061462;28;20042;-61
2022/03/25 02:36:55;;;;;;;23.75;11.60;;;12.20;43.50;;;;;;10063995;28;20257;-64
2022/03/25 02:41:46;;;;;;;23.92;11.02;;;12.20;42.90;;;;;;10058447;28;20033;-62
2022/03/25 02:46:37;;;;;;;26.25;11.20;;;12.10;42.70;;;;;;10060113;28;20119;-62
2022/03/25 02:51:28;;;;;;;27.58;12.75;;;12.10;42.70;;;;;;10083592;28;20033;-62
2022/03/25 02:56:18;;;;;;;19.98;10.73;;;12.00;43.00;;;;;;10073464;28;20037;-63
2022/03/25 03:01:09;;;;;;;24.63;12.00;;;12.00;43.00;;;;;;10056791;28;20063;-63
2022/03/25 03:06:00;;;;;;;27.10;10.50;;;12.00;43.00;;;;;;10061989;28;20113;-61
2022/03/25 03:10:51;;;;;;;23.63;10.52;;;12.00;43.00;;;;;;10044988;28;20032;-62
2022/03/25 03:15:42;;;;;;;23.83;11.60;;;11.90;42.90;;;;;;10074732;28;20025;-61
2022/03/25 03:20:33;;;;;;;24.30;10.95;;;12.00;43.00;;;;;;10069519;28;20037;-64
2022/03/25 03:25:26;;;;;;;24.05;11.57;;;12.10;43.00;;;;;;10074525;28;20025;-63
2022/03/25 03:30:16;;;;;;;21.25;10.48;;;11.90;43.10;;;;;;10068235;28;20052;-65
2022/03/25 03:35:08;;;;;;;22.73;10.80;;;12.00;43.10;;;;;;10038352;28;20072;-64
2022/03/25 03:39:59;;;;;;;25.13;11.43;;;12.00;43.10;;;;;;10064285;28;20114;-65
2022/03/25 03:44:49;;;;;;;24.05;12.32;;;11.90;43.20;;;;;;10063710;28;20451;-62
2022/03/25 03:49:40;;;;;;;24.13;12.30;;;11.90;43.30;;;;;;10057856;28;20116;-62
2022/03/25 03:54:32;;;;;;;23.88;11.07;;;11.90;43.30;;;;;;10057557;28;20026;-66
2022/03/25 03:59:23;;;;;;;24.83;12.32;;;11.90;43.50;;;;;;10086070;28;20383;-62
2022/03/25 04:04:14;;;;;;;28.00;12.13;;;11.90;43.40;;;;;;10066455;28;20029;-62
2022/03/25 04:09:04;;;;;;;24.15;12.55;;;11.70;43.60;;;;;;10062242;28;20029;-63
2022/03/25 04:13:55;;;;;;;24.35;11.75;;;11.70;43.50;;;;;;10062475;28;20300;-61
2022/03/25 04:18:46;;;;;;;23.42;11.93;;;11.60;43.60;;;;;;10061585;28;20223;-62
2022/03/25 04:23:36;;;;;;;23.20;11.90;;;11.70;43.70;;;;;;10078521;28;20025;-63
2022/03/25 04:28:27;;;;;;;24.50;11.30;;;11.60;43.90;;;;;;10057876;28;20053;-63
2022/03/25 04:33:17;;;;;;;27.20;11.80;;;11.50;43.90;;;;;;10070775;28;20450;-61
2022/03/25 04:38:09;;;;;;;22.40;11.10;;;11.50;44.00;;;;;;10074099;28;20529;-62
2022/03/25 04:43:01;;;;;;;31.83;11.25;;;11.40;44.00;;;;;;10061510;28;20418;-61
2022/03/25 04:47:52;;;;;;;25.38;13.02;;;11.40;44.10;;;;;;10059067;28;20133;-62
2022/03/25 04:52:43;;;;;;;24.73;11.38;;;11.20;44.20;;;;;;10070945;28;20022;-64
2022/03/25 04:57:34;;;;;;;23.08;10.35;;;11.30;45.00;;;;;;10068780;28;20041;-63
2022/03/25 05:02:25;;;;;;;26.58;12.20;;;11.20;44.40;;;;;;10066846;28;20080;-63
2022/03/25 05:07:16;;;;;;;25.98;11.88;;;11.20;44.70;;;;;;10058748;28;20037;-63
2022/03/25 05:12:08;;;;;;;33.60;14.93;;;11.20;44.70;;;;;;10052352;28;20029;-62
2022/03/25 05:16:58;;;;;;;23.38;11.85;;;11.20;44.60;;;;;;10076789;28;20025;-62
2022/03/25 05:21:49;;;;;;;24.02;10.80;;;11.10;44.90;;;;;;10074044;28;20025;-62
2022/03/25 05:26:41;;;;;;;25.95;13.32;;;11.00;44.70;;;;;;10071679;28;20407;-62
2022/03/25 05:31:32;;;;;;;28.77;13.13;;;11.00;45.00;;;;;;10070184;28;20061;-62
2022/03/25 05:36:23;;;;;;;29.42;12.32;;;11.00;44.90;;;;;;10070081;28;20025;-61
2022/03/25 05:41:14;;;;;;;24.20;13.00;;;11.00;45.30;;;;;;10059572;28;20506;-62
2022/03/25 05:46:05;;;;;;;32.42;11.85;;;10.90;45.20;;;;;;10054985;28;20026;-62
2022/03/25 05:50:56;;;;;;;26.13;12.82;;;10.90;45.60;;;;;;10078462;28;20032;-61
2022/03/25 05:55:47;;;;;;;25.95;12.70;;;10.60;45.60;;;;;;10071770;28;20025;-61
2022/03/25 06:00:37;;;;;;;30.00;12.13;;;10.50;45.80;;;;;;10059953;28;20044;-62
2022/03/25 06:05:28;;;;;;;25.70;11.38;;;10.50;46.00;;;;;;10054134;28;20414;-62
2022/03/25 06:10:19;;;;;;;30.80;14.70;;;10.60;46.00;;;;;;10019958;28;20045;-62
2022/03/25 06:15:10;;;;;;;26.23;12.52;;;10.60;45.80;;;;;;10066977;28;20035;-61
2022/03/25 06:20:01;;;;;;;29.35;11.52;;;10.70;46.00;;;;;;10083552;28;20025;-61
2022/03/25 06:24:52;;;;;;;23.10;11.43;;;10.70;46.00;;;;;;10081060;28;20033;-63
2022/03/25 06:29:42;;;;;;;26.63;11.82;;;10.80;46.10;;;;;;10067272;28;20107;-63
2022/03/25 06:34:34;;;;;;;29.02;13.02;;;10.70;46.50;;;;;;10067189;28;20021;-64
2022/03/25 06:39:25;;;;;;;20.38;11.10;;;10.70;46.50;;;;;;10064505;28;20187;-63
2022/03/25 06:44:16;;;;;;;26.58;12.13;;;10.70;46.90;;;;;;10057191;28;20025;-62
2022/03/25 06:49:07;;;;;;;24.90;11.23;;;10.80;46.90;;;;;;10059731;28;20060;-62
2022/03/25 06:53:58;;;;;;;23.83;13.00;;;10.80;47.40;;;;;;10073830;28;20371;-61
2022/03/25 06:58:49;;;;;;;30.65;13.32;;;10.80;47.30;;;;;;10089628;28;20534;-62
2022/03/25 07:03:40;;;;;;;25.65;12.45;;;10.80;47.80;;;;;;10064182;28;20547;-61
2022/03/25 07:08:33;;;;;;;26.83;11.85;;;11.00;47.40;;;;;;10065394;28;20156;-63
2022/03/25 07:13:25;;;;;;;23.63;11.68;;;10.90;47.50;;;;;;10052223;28;20028;-63
2022/03/25 07:18:16;;;;;;;26.08;13.50;;;10.80;47.50;;;;;;10060103;28;20039;-63
2022/03/25 07:23:07;;;;;;;22.60;11.50;;;10.90;48.00;;;;;;10063974;28;20025;-62
2022/03/25 07:27:58;;;;;;;27.40;12.88;;;10.90;47.80;;;;;;10074830;28;20040;-64
2022/03/25 07:32:49;;;;;;;24.80;11.98;;;11.00;48.00;;;;;;10067562;28;20461;-64
2022/03/25 07:37:40;;;;;;;24.65;11.68;;;11.10;47.80;;;;;;10058182;28;20527;-62
2022/03/25 07:42:31;;;;;;;24.10;12.05;;;11.10;48.00;;;;;;10057654;28;20117;-61
2022/03/25 07:47:22;;;;;;;28.23;12.85;;;11.10;48.20;;;;;;10055894;28;20042;-62
2022/03/25 07:52:13;;;;;;;26.95;11.98;;;11.30;48.30;;;;;;10057184;28;20056;-62
2022/03/25 07:57:04;;;;;;;28.05;14.20;;;11.50;48.10;;;;;;10053355;28;20033;-63
2022/03/25 08:01:56;;;;;;;25.63;12.43;;;11.40;48.30;;;;;;10062080;28;20542;-63
2022/03/25 08:06:46;;;;;;;23.83;12.38;;;11.60;48.30;;;;;;10062788;28;20184;-64
2022/03/25 08:11:37;;;;;;;33.45;14.18;;;11.70;48.30;;;;;;10030441;28;20191;-63
2022/03/25 08:16:28;;;;;;;25.60;12.38;;;11.80;48.50;;;;;;10072442;28;20384;-63
2022/03/25 08:21:19;;;;;;;30.20;13.70;;;11.90;48.50;;;;;;10078352;28;20029;-63
2022/03/25 08:31:24;;;;;;;28.38;13.55;;;12.40;47.70;;;;;;10070083;28;20107;-63
2022/03/25 08:36:17;;;;;;;28.45;13.13;;;12.30;48.00;;;;;;10059248;28;20070;-61
2022/03/25 08:41:07;;;;;;;26.60;14.30;;;12.40;48.00;;;;;;10060306;28;20087;-61
2022/03/25 08:45:58;;;;;;;27.63;14.85;;;12.50;48.20;;;;;;10058999;28;20627;-62
2022/03/25 08:50:50;;;;;;;24.45;13.43;;;12.60;47.90;;;;;;10056096;28;20095;-62
2022/03/25 08:55:40;;;;;;;25.35;13.02;;;12.70;47.90;;;;;;10053409;28;20089;-63
2022/03/25 09:00:31;;;;;;;30.73;14.50;;;12.70;48.00;;;;;;10060291;28;20476;-63
2022/03/25 09:05:22;;;;;;;29.77;14.70;;;12.70;48.40;;;;;;10053602;28;20025;-62
2022/03/25 09:10:17;;;;;;;34.08;14.05;;;12.70;48.40;;;;;;10055938;28;20049;-63
2022/03/25 09:15:08;;;;;;;31.05;14.38;;;12.80;48.20;;;;;;10052120;28;20117;-60
2022/03/25 09:19:58;;;;;;;28.80;14.57;;;13.10;47.90;;;;;;10054677;28;20040;-64
2022/03/25 09:24:49;;;;;;;28.90;14.07;;;13.10;48.00;;;;;;10055560;28;20036;-63
2022/03/25 09:29:40;;;;;;;29.40;14.68;;;13.20;48.00;;;;;;10061269;28;20046;-64
2022/03/25 09:39:40;;;;;;;31.20;16.60;;;13.50;48.00;;;;;;10053530;28;20040;-66
2022/03/25 09:44:32;;;;;;;29.15;15.77;;;13.60;47.60;;;;;;10054474;28;20132;-65
2022/03/25 09:49:23;;;;;;;33.40;16.98;;;13.70;47.70;;;;;;10055056;28;20534;-64
2022/03/25 09:54:15;;;;;;;33.33;15.77;;;14.00;47.50;;;;;;10052419;28;20060;-65
2022/03/25 09:59:07;;;;;;;34.55;16.30;;;14.10;47.50;;;;;;10053498;28;20464;-63
2022/03/25 10:03:58;;;;;;;30.45;14.55;;;14.20;47.40;;;;;;10033611;28;20603;-61
2022/03/25 10:08:57;;;;;;;34.28;16.08;;;14.30;47.20;;;;;;10053232;28;20049;-63
2022/03/25 10:13:50;;;;;;;30.35;17.38;;;14.50;47.00;;;;;;10051206;28;20038;-64
2022/03/25 10:18:52;;;;;;;31.45;15.70;;;14.70;46.70;;;;;;10054312;28;20265;-69
2022/03/25 10:23:44;;;;;;;33.83;17.80;;;14.80;46.70;;;;;;10052813;28;20041;-65
2022/03/25 10:28:44;;;;;;;32.63;15.90;;;15.00;46.50;;;;;;10065182;28;20057;-65
2022/03/25 10:33:42;;;;;;;32.80;15.57;;;15.10;46.30;;;;;;10048649;28;20052;-63
2022/03/25 10:38:49;;;;;;;28.33;16.13;;;15.30;46.10;;;;;;10052163;28;20029;-62
2022/03/25 10:43:57;;;;;;;28.38;15.30;;;15.30;45.90;;;;;;10051461;28;20034;-62
2022/03/25 10:48:53;;;;;;;32.63;17.33;;;15.40;45.90;;;;;;10052476;28;20069;-62
2022/03/25 10:53:47;;;;;;;27.48;14.07;;;15.60;45.60;;;;;;10059056;28;20435;-62
2022/03/25 10:58:38;;;;;;;28.75;15.57;;;15.70;45.50;;;;;;10059309;28;20086;-63
2022/03/25 11:03:29;;;;;;;33.35;16.88;;;15.90;45.40;;;;;;10063681;28;20037;-63
2022/03/25 11:08:21;;;;;;;36.72;17.52;;;16.00;45.10;;;;;;10038080;28;20418;-65
2022/03/25 11:13:12;;;;;;;29.77;14.95;;;16.20;44.90;;;;;;10036204;28;20118;-62
2022/03/25 11:18:03;;;;;;;36.50;16.17;;;16.30;44.80;;;;;;10063796;28;20506;-65
2022/03/25 11:22:56;;;;;;;34.33;16.67;;;16.50;44.60;;;;;;10043210;28;20594;-64
2022/03/25 11:28:16;;;;;;;32.88;16.83;;;16.50;44.50;;;;;;10069630;28;20053;-63
2022/03/25 11:33:07;;;;;;;38.80;17.75;;;16.70;44.20;;;;;;10055113;28;20052;-63
2022/03/25 11:38:12;;;;;;;33.40;16.48;;;16.80;44.30;;;;;;10065196;28;20037;-63
2022/03/25 11:43:21;;;;;;;37.33;19.42;;;16.90;43.90;;;;;;10043399;28;20453;-63
2022/03/25 11:48:12;;;;;;;29.23;16.67;;;17.20;43.60;;;;;;10063757;28;20092;-65
2022/03/25 11:53:11;;;;;;;33.58;15.73;;;17.40;43.20;;;;;;10046005;28;20420;-64
2022/03/25 11:58:14;;;;;;;34.75;16.02;;;17.50;43.00;;;;;;10063325;28;20518;-65
2022/03/25 12:03:05;;;;;;;37.17;17.70;;;17.50;42.20;;;;;;10057752;28;20528;-66
2022/03/25 12:08:21;;;;;;;30.80;15.77;;;17.70;42.20;;;;;;10062870;28;20451;-66
2022/03/25 12:13:12;;;;;;;29.67;15.27;;;17.90;41.30;;;;;;10059049;28;20393;-67
2022/03/25 12:18:41;;;;;;;33.42;15.45;;;18.10;41.40;;;;;;10059298;28;20022;-66
2022/03/25 12:23:32;;;;;;;32.53;17.75;;;18.30;39.10;;;;;;10055356;28;20357;-66
2022/03/25 12:28:24;;;;;;;31.65;19.25;;;18.40;40.20;;;;;;10058031;28;20045;-66
2022/03/25 12:33:18;;;;;;;28.67;17.10;;;18.70;40.10;;;;;;10056140;28;20273;-66
2022/03/25 12:38:22;;;;;;;34.80;17.17;;;19.10;39.70;;;;;;10057123;28;20038;-68
2022/03/25 12:43:13;;;;;;;28.40;16.95;;;19.20;38.90;;;;;;10062856;28;20502;-63
2022/03/25 12:48:24;;;;;;;30.27;17.50;;;19.70;39.20;;;;;;10046455;28;20033;-63
2022/03/25 12:53:16;;;;;;;30.02;16.55;;;19.90;38.90;;;;;;10044476;28;20112;-63
2022/03/25 12:58:12;;;;;;;29.25;16.20;;;20.20;38.90;;;;;;10057334;28;20033;-63
2022/03/25 13:03:04;;;;;;;28.83;16.75;;;20.50;38.60;;;;;;10054900;28;20123;-63
2022/03/25 13:07:58;;;;;;;27.83;16.98;;;20.90;38.90;;;;;;10061681;28;20132;-64
2022/03/25 13:12:52;;;;;;;30.05;17.23;;;20.90;37.50;;;;;;10053877;28;20037;-63
2022/03/25 13:17:44;;;;;;;29.20;17.85;;;21.30;37.90;;;;;;10057532;28;20029;-64
2022/03/25 13:22:36;;;;;;;29.60;18.85;;;22.00;38.00;;;;;;10055463;28;20075;-63
2022/03/25 13:27:27;;;;;;;31.90;18.70;;;22.20;36.80;;;;;;10054384;28;20132;-64
2022/03/25 13:32:35;;;;;;;27.15;17.13;;;22.40;35.60;;;;;;10053573;28;20029;-63
2022/03/25 13:37:25;;;;;;;28.00;18.10;;;23.30;34.50;;;;;;10058000;28;20026;-62
2022/03/25 13:42:16;;;;;;;27.77;19.63;;;25.10;33.10;;;;;;10051979;28;20040;-63
2022/03/25 13:47:08;;;;;;;26.92;15.85;;;27.40;31.50;;;;;;10059688;28;20034;-63
2022/03/25 13:52:06;;;;;;;22.88;17.70;;;28.50;30.50;;;;;;10052365;28;20044;-61
2022/03/25 13:57:04;;;;;;;25.95;16.50;;;29.30;30.00;;;;;;10060385;28;20037;-62
2022/03/25 14:01:55;;;;;;;25.27;17.67;;;29.90;29.50;;;;;;10054427;28;20063;-61
2022/03/25 14:06:48;;;;;;;29.90;17.95;;;28.90;29.10;;;;;;10054417;28;20029;-62
2022/03/25 14:11:38;;;;;;;24.35;17.05;;;27.90;28.80;;;;;;10035553;28;20029;-63
2022/03/25 14:16:33;;;;;;;24.77;16.52;;;26.70;28.80;;;;;;10034575;28;20602;-67
2022/03/25 14:21:28;;;;;;;27.00;16.95;;;26.20;28.60;;;;;;10055753;28;20467;-68
2022/03/25 14:26:18;;;;;;;25.17;17.20;;;26.10;29.00;;;;;;10051628;28;20053;-66
2022/03/25 14:31:09;;;;;;;26.48;17.10;;;25.90;28.80;;;;;;10051960;28;20037;-68
2022/03/25 14:36:00;;;;;;;25.00;17.63;;;25.70;28.80;;;;;;10055903;28;20286;-69
2022/03/25 14:40:51;;;;;;;23.17;16.50;;;25.60;28.40;;;;;;10055106;28;20099;-69
2022/03/25 14:45:41;;;;;;;24.08;16.65;;;25.40;28.10;;;;;;10059105;28;20029;-69
2022/03/25 14:50:32;;;;;;;24.70;16.85;;;25.60;27.90;;;;;;10051210;28;20433;-65
2022/03/25 14:55:23;;;;;;;28.60;17.65;;;25.80;27.80;;;;;;10053344;28;20515;-67
2022/03/25 15:00:15;;;;;;;27.27;17.80;;;25.80;27.60;;;;;;10034344;28;20037;-68
2022/03/25 15:05:07;;;;;;;31.85;17.33;;;26.50;27.40;;;;;;10055016;28;20096;-66
2022/03/25 15:09:57;;;;;;;25.63;18.13;;;27.00;27.20;;;;;;10053973;28;20689;-62
2022/03/25 15:14:48;;;;;;;24.83;16.27;;;27.70;27.00;;;;;;10057642;28;20022;-64
2022/03/25 15:19:39;;;;;;;27.25;16.67;;;27.90;26.80;;;;;;10061852;28;20359;-65
2022/03/25 15:24:30;;;;;;;26.02;17.58;;;28.40;26.50;;;;;;10041631;28;20026;-62
2022/03/25 15:34:30;;;;;;;29.48;19.00;;;28.00;26.20;;;;;;10058385;28;20072;-66
2022/03/25 15:39:59;;;;;;;25.05;16.30;;;28.10;26.20;;;;;;10061482;28;20107;-66
2022/03/25 15:44:32;;;;;;;27.42;16.77;;;28.00;26.00;;;;;;10057356;28;20037;-65
2022/03/25 15:49:22;;;;;;;25.73;16.02;;;28.00;25.90;;;;;;10037032;28;20033;-66
2022/03/25 15:54:13;;;;;;;29.70;16.58;;;27.90;25.90;;;;;;10061174;28;20395;-66
2022/03/25 15:59:04;;;;;;;26.38;16.40;;;27.40;26.00;;;;;;10058985;28;20041;-65
2022/03/25 16:03:54;;;;;;;24.45;16.20;;;27.20;26.00;;;;;;10061445;28;20514;-68
2022/03/25 16:08:46;;;;;;;25.10;15.07;;;26.70;26.00;;;;;;10058052;28;20028;-69
2022/03/25 16:13:36;;;;;;;25.58;15.88;;;26.60;26.00;;;;;;10038750;28;20025;-68
2022/03/25 16:18:27;;;;;;;22.48;14.70;;;26.60;26.10;;;;;;10057882;28;20045;-68
2022/03/25 16:23:19;;;;;;;21.85;13.18;;;26.60;25.90;;;;;;10066527;28;20092;-69
2022/03/25 16:28:13;;;;;;;24.00;14.52;;;26.20;25.90;;;;;;10050736;28;20145;-69
2022/03/25 16:33:04;;;;;;;23.73;13.57;;;26.10;25.90;;;;;;10065779;28;20332;-68
2022/03/25 16:37:58;;;;;;;26.52;15.20;;;24.60;26.30;;;;;;10060412;28;20671;-70
2022/03/25 16:42:50;;;;;;;20.95;13.15;;;22.90;27.30;;;;;;10059000;28;20032;-63
2022/03/25 16:47:46;;;;;;;25.55;14.40;;;22.80;27.60;;;;;;10068065;28;20439;-62
2022/03/25 16:52:37;;;;;;;21.58;14.52;;;23.70;26.90;;;;;;10072534;28;20500;-62
2022/03/25 16:57:27;;;;;;;23.75;13.85;;;23.80;26.90;;;;;;10037614;28;20088;-63
2022/03/25 17:02:18;;;;;;;25.17;13.98;;;23.60;27.10;;;;;;10059495;28;20080;-63
2022/03/25 17:07:09;;;;;;;22.33;13.15;;;23.20;27.30;;;;;;10058650;28;20029;-62
2022/03/25 17:12:01;;;;;;;20.73;12.57;;;21.70;28.30;;;;;;10053197;28;20041;-62
2022/03/25 17:16:52;;;;;;;24.17;13.20;;;20.70;29.00;;;;;;10055873;28;20403;-64
2022/03/25 17:21:43;;;;;;;23.13;13.80;;;20.30;29.30;;;;;;10055613;28;20442;-62
2022/03/25 17:26:34;;;;;;;29.25;13.43;;;20.00;29.40;;;;;;10053055;28;20041;-62
2022/03/25 17:31:26;;;;;;;31.88;14.93;;;19.80;29.60;;;;;;10052283;28;20078;-65
2022/03/25 17:36:20;;;;;;;23.48;12.02;;;19.50;29.80;;;;;;10046398;28;20026;-64
2022/03/25 17:41:10;;;;;;;20.63;12.27;;;19.30;30.00;;;;;;10058275;28;20053;-63
2022/03/25 17:46:01;;;;;;;23.67;12.50;;;19.20;30.10;;;;;;10062303;28;20063;-63
2022/03/25 17:50:54;;;;;;;22.73;11.32;;;19.10;30.30;;;;;;10062777;28;20135;-63
2022/03/25 17:55:45;;;;;;;24.50;12.95;;;18.90;31.20;;;;;;10055866;28;20271;-63
2022/03/25 18:00:36;;;;;;;20.40;12.18;;;18.80;30.50;;;;;;10063276;28;20030;-63
2022/03/25 18:05:27;;;;;;;19.75;11.38;;;18.70;31.50;;;;;;10059046;28;20023;-64
2022/03/25 18:10:17;;;;;;;23.33;11.85;;;18.60;30.90;;;;;;10053378;28;20530;-63
2022/03/25 18:15:08;;;;;;;20.30;11.57;;;18.40;30.90;;;;;;10056175;28;20041;-63
2022/03/25 18:20:00;;;;;;;19.77;10.15;;;18.40;31.10;;;;;;10054434;28;20044;-64
2022/03/25 18:24:50;;;;;;;18.90;11.30;;;18.30;31.10;;;;;;10066478;28;20474;-65
2022/03/25 18:29:41;;;;;;;18.45;10.27;;;18.30;31.10;;;;;;10069740;28;20063;-66
2022/03/25 18:34:32;;;;;;;18.63;9.75;;;18.20;31.10;;;;;;10077126;28;20025;-63
2022/03/25 18:39:22;;;;;;;18.27;10.25;;;18.10;31.30;;;;;;10053717;28;20033;-64
2022/03/25 18:44:13;;;;;;;18.30;9.93;;;18.00;31.40;;;;;;10069341;28;20148;-65
2022/03/25 18:49:04;;;;;;;21.52;10.95;;;17.90;31.40;;;;;;10067896;28;20110;-64
2022/03/25 18:53:55;;;;;;;19.00;11.20;;;17.80;31.50;;;;;;10073911;28;20491;-63
2022/03/25 18:58:46;;;;;;;22.88;11.25;;;17.70;31.70;;;;;;10085355;28;20074;-67
2022/03/25 19:03:36;;;;;;;21.83;9.95;;;17.60;31.80;;;;;;10051788;28;20029;-65
2022/03/25 19:08:27;;;;;;;21.17;10.63;;;17.60;31.80;;;;;;10069738;28;20025;-64
2022/03/25 19:13:22;;;;;;;22.92;10.70;;;17.50;31.90;;;;;;10065739;28;20038;-63
2022/03/25 19:18:13;;;;;;;18.57;10.83;;;17.40;32.10;;;;;;10066737;28;20037;-65
2022/03/25 19:23:05;;;;;;;23.38;13.10;;;17.20;32.40;;;;;;10062463;28;20029;-64
2022/03/25 19:27:55;;;;;;;24.45;12.35;;;17.10;32.60;;;;;;10073283;28;20527;-63
2022/03/25 19:32:46;;;;;;;22.67;12.10;;;17.10;32.80;;;;;;10074190;28;20123;-63
2022/03/25 19:37:37;;;;;;;23.20;12.43;;;17.00;33.00;;;;;;10076028;28;20041;-65
2022/03/25 19:42:28;;;;;;;22.63;13.32;;;16.90;33.20;;;;;;10072178;28;20064;-64
2022/03/25 19:47:19;;;;;;;26.52;13.80;;;16.90;33.50;;;;;;10068962;28;20032;-64
2022/03/25 19:52:10;;;;;;;28.02;12.75;;;16.80;33.60;;;;;;10064930;28;20100;-64
2022/03/25 19:57:00;;;;;;;28.70;12.98;;;16.70;33.80;;;;;;10061132;28;20061;-63
2022/03/25 20:01:51;;;;;;;27.75;14.75;;;16.70;34.00;;;;;;10041993;28;20033;-67
2022/03/25 20:06:42;;;;;;;25.65;14.45;;;16.60;34.30;;;;;;10070665;28;20117;-64
2022/03/25 20:11:33;;;;;;;24.95;14.73;;;16.60;34.40;;;;;;10067697;28;20131;-63
2022/03/25 20:16:24;;;;;;;26.80;13.55;;;16.50;34.60;;;;;;10065181;28;20314;-63
2022/03/25 20:21:15;;;;;;;21.50;13.30;;;16.50;34.60;;;;;;10064984;28;20040;-63
2022/03/25 20:26:06;;;;;;;26.20;13.45;;;16.40;34.60;;;;;;10060554;28;20041;-62
2022/03/25 20:30:56;;;;;;;28.23;14.32;;;16.40;34.60;;;;;;10057041;28;20044;-64
2022/03/25 20:35:47;;;;;;;22.73;12.05;;;16.30;34.80;;;;;;10079817;28;20037;-64
2022/03/25 20:40:39;;;;;;;23.25;12.30;;;16.20;35.30;;;;;;10081711;28;20503;-62
2022/03/25 20:45:30;;;;;;;30.52;13.63;;;16.10;35.50;;;;;;10073741;28;20035;-65
2022/03/25 20:50:21;;;;;;;21.23;13.10;;;16.00;35.60;;;;;;10077654;28;20022;-63
2022/03/25 20:55:11;;;;;;;22.70;12.40;;;15.90;35.90;;;;;;10061706;28;20029;-62
2022/03/25 21:00:04;;;;;;;27.20;14.82;;;15.90;35.90;;;;;;10062650;28;20037;-66
2022/03/25 21:04:55;;;;;;;29.55;13.80;;;15.80;36.10;;;;;;10065393;28;20030;-63
2022/03/25 21:09:46;;;;;;;26.40;13.85;;;15.80;36.10;;;;;;10078376;28;20025;-64
2022/03/25 21:14:37;;;;;;;27.98;13.93;;;15.80;36.20;;;;;;10058852;28;20064;-63
2022/03/25 21:19:28;;;;;;;26.15;12.98;;;15.70;36.40;;;;;;10065476;28;20106;-64
2022/03/25 21:24:19;;;;;;;27.23;13.38;;;15.60;36.40;;;;;;10040290;28;20136;-62
2022/03/25 21:29:10;;;;;;;25.80;14.57;;;15.60;36.60;;;;;;10068266;28;20131;-64
2022/03/25 21:34:01;;;;;;;25.42;12.90;;;15.50;36.80;;;;;;10073331;28;20034;-63
2022/03/25 21:38:55;;;;;;;27.55;12.77;;;15.30;37.30;;;;;;10080565;28;20045;-63
2022/03/25 21:43:45;;;;;;;25.98;12.65;;;15.20;37.30;;;;;;10070771;28;20054;-62
2022/03/25 21:48:36;;;;;;;30.00;14.95;;;15.20;37.30;;;;;;10068569;28;20029;-64
2022/03/25 21:53:27;;;;;;;22.75;12.52;;;15.10;37.50;;;;;;10062655;28;20522;-64
2022/03/25 21:58:17;;;;;;;30.10;14.48;;;15.10;37.40;;;;;;10057274;28;20615;-64
2022/03/25 22:03:09;;;;;;;28.17;14.73;;;15.10;37.60;;;;;;10043611;28;20060;-66
2022/03/25 22:08:00;;;;;;;29.90;15.02;;;15.00;37.70;;;;;;10071009;28;20034;-63
2022/03/25 22:12:50;;;;;;;35.50;15.32;;;14.80;37.90;;;;;;10068317;28;20032;-64
2022/03/25 22:17:41;;;;;;;24.60;13.45;;;14.60;38.20;;;;;;10064454;28;20037;-63
2022/03/25 22:22:33;;;;;;;29.30;14.80;;;14.50;38.50;;;;;;10059012;28;20030;-65
2022/03/25 22:27:23;;;;;;;26.17;13.73;;;14.40;38.60;;;;;;10055362;28;20045;-64
2022/03/25 22:32:15;;;;;;;28.55;15.18;;;14.30;38.90;;;;;;10068898;28;20040;-63
2022/03/25 22:37:06;;;;;;;32.50;15.05;;;14.20;39.40;;;;;;10066162;28;20252;-63
2022/03/25 22:41:57;;;;;;;27.20;13.38;;;14.10;39.70;;;;;;10061887;28;20056;-62
2022/03/25 22:46:50;;;;;;;25.52;12.95;;;14.00;40.10;;;;;;10064608;28;20056;-63
2022/03/25 22:51:42;;;;;;;34.22;14.07;;;13.90;40.10;;;;;;10061842;28;20029;-65
2022/03/25 22:56:33;;;;;;;33.13;15.45;;;13.90;40.30;;;;;;10052954;28;20030;-63
2022/03/25 23:01:32;;;;;;;33.95;13.52;;;13.70;40.60;;;;;;10064358;28;20021;-63
2022/03/25 23:06:22;;;;;;;31.40;13.38;;;13.60;40.90;;;;;;10056677;28;20029;-63
2022/03/25 23:11:13;;;;;;;26.02;13.50;;;13.70;40.90;;;;;;10058354;28;20536;-62
2022/03/25 23:16:05;;;;;;;25.40;12.80;;;13.50;41.10;;;;;;10056882;28;20091;-63
2022/03/25 23:20:55;;;;;;;27.92;13.88;;;13.50;41.30;;;;;;10053568;28;20056;-62
2022/03/25 23:25:46;;;;;;;31.70;13.90;;;13.40;41.60;;;;;;10052203;28;20475;-63
2022/03/25 23:30:37;;;;;;;26.80;13.02;;;13.30;42.00;;;;;;10068871;28;20046;-65
2022/03/25 23:35:29;;;;;;;30.15;14.25;;;13.20;42.10;;;;;;10046365;28;20491;-64
2022/03/25 23:40:21;;;;;;;29.73;14.20;;;13.20;42.20;;;;;;10039520;28;20053;-64
2022/03/25 23:45:12;;;;;;;24.98;12.85;;;13.10;42.70;;;;;;10074595;28;20124;-62
2022/03/25 23:50:03;;;;;;;22.65;12.68;;;13.00;42.80;;;;;;10076524;28;20099;-63
2022/03/25 23:54:54;;;;;;;27.83;13.68;;;12.90;43.10;;;;;;10063832;28;20534;-64
2022/03/25 23:59:45;;;;;;;25.63;12.77;;;12.90;43.40;;;;;;10053222;28;20033;-62
